.
WxDataArchive / Data Records for 2009-07-09
2009-07-08 July 2009 2009-07-10

Data Records for Thursday, 09 July 2009

Time	Temp	Chill	HIndex	Humid	Dewpt	 Wind 	HiWind	WindDir	Rain 	Barom 
-----	----	-----	------	-----	-----	------	------	-------	-----	----- 
00:00	68.8	68.8	68.8	56	52.5	0	1	90	0.00	30.039 
00:05	68.6	68.6	68.6	58	53.2	0	3	90	0.00	30.039 
00:10	68.3	68.3	68.3	59	53.4	0	1	90	0.00	30.039 
00:15	67.9	67.9	67.9	59	53.0	0	2	90	0.00	30.035 
00:20	67.8	67.8	67.8	60	53.4	0	1	90	0.00	30.035 
00:25	67.4	67.4	67.4	60	53.0	0	1	90	0.00	30.035 
00:30	67.3	67.3	67.3	59	52.5	0	1	90	0.00	30.040 
00:35	67.3	67.3	67.3	59	52.5	0	1	90	0.00	30.040 
00:40	67.1	67.1	67.1	59	52.3	0	1	90	0.00	30.040 
00:45	67.1	67.1	67.1	59	52.3	0	2	90	0.00	30.042 
00:50	67.1	67.1	67.1	59	52.3	0	2	90	0.00	30.042 
00:55	67.1	67.1	67.1	58	51.8	0	2	90	0.00	30.042 
01:00	67.3	67.3	67.3	58	52.0	0	2	90	0.00	30.049 
01:05	67.3	67.3	67.3	58	52.0	0	1	90	0.00	30.049 
01:10	67.3	67.3	67.3	59	52.5	0	1	90	0.00	30.049 
01:15	67.3	67.3	67.3	59	52.5	0	2	90	0.00	30.049 
01:20	67.1	67.1	67.1	59	52.3	0	1	90	0.00	30.049 
01:25	67.1	67.1	67.1	59	52.3	0	1	90	0.00	30.049 
01:30	67.1	67.1	67.1	59	52.3	0	1	90	0.00	30.049 
01:35	67.1	67.1	67.1	59	52.3	0	1	90	0.00	30.049 
01:40	66.9	66.9	66.9	59	52.1	0	2	90	0.00	30.049 
01:45	66.9	66.9	66.9	59	52.1	0	2	90	0.00	30.047 
01:50	66.9	66.9	66.9	59	52.1	1	2	90	0.00	30.047 
01:55	66.9	66.9	66.9	60	52.6	0	1	90	0.00	30.047 
02:00	66.9	66.9	66.9	60	52.6	0	2	90	0.00	30.048 
02:05	66.8	66.8	66.8	60	52.5	0	2	90	0.00	30.048 
02:10	66.6	66.6	66.6	60	52.3	0	1	90	0.00	30.048 
02:15	66.6	66.6	66.6	60	52.3	0	2	90	0.00	30.044 
02:20	66.6	66.6	66.6	60	52.3	1	3	90	0.00	30.044 
02:25	66.4	66.4	66.4	60	52.1	1	3	90	0.00	30.044 
02:30	66.4	66.4	66.4	60	52.1	1	2	90	0.00	30.035 
02:35	66.4	66.4	66.4	60	52.1	1	4	90	0.00	30.035 
02:40	66.3	66.3	66.3	60	52.0	1	4	90	0.00	30.035 
02:45	66.3	66.3	66.3	59	51.5	1	2	90	0.00	30.033 
02:50	66.3	66.3	66.3	59	51.5	1	3	90	0.00	30.033 
02:55	66.3	66.3	66.3	59	51.5	1	3	90	0.00	30.033 
03:00	66.1	66.1	66.1	61	52.3	0	2	90	0.00	30.032 
03:05	66.0	66.0	66.0	62	52.6	0	0	---	0.00	30.032 
03:10	65.8	65.8	65.8	61	52.0	0	2	90	0.00	30.032 
03:15	65.8	65.8	65.8	61	52.0	0	3	90	0.00	30.033 
03:20	65.8	65.8	65.8	60	51.5	0	2	90	0.00	30.033 
03:25	65.8	65.8	65.8	61	52.0	0	1	90	0.00	30.033 
03:30	65.8	65.8	65.8	60	51.5	1	4	90	0.00	30.036 
03:35	65.8	65.8	65.8	61	52.0	1	2	90	0.00	30.036 
03:40	65.8	65.8	65.8	61	52.0	1	3	90	0.00	30.036 
03:45	65.8	65.8	65.8	61	52.0	1	4	90	0.00	30.035 
03:50	65.8	65.8	65.8	62	52.4	0	2	90	0.00	30.035 
03:55	65.8	65.8	65.8	61	52.0	1	5	112	0.00	30.035 
04:00	65.6	65.6	65.6	62	52.2	1	3	112	0.00	30.034 
04:05	65.6	65.6	65.6	62	52.2	1	3	112	0.00	30.034 
04:10	65.6	65.6	65.6	62	52.2	1	2	112	0.00	30.034 
04:15	65.6	65.6	65.6	62	52.2	0	2	112	0.00	30.036 
04:20	65.6	65.6	65.6	62	52.2	0	1	112	0.00	30.036 
04:25	65.5	65.5	65.5	62	52.1	0	1	112	0.00	30.036 
04:30	65.5	65.5	65.5	62	52.1	0	2	112	0.00	30.040 
04:35	65.5	65.5	65.5	62	52.1	0	2	112	0.00	30.040 
04:40	65.5	65.5	65.5	62	52.1	0	3	112	0.00	30.040 
04:45	65.3	65.3	65.3	62	51.9	0	2	112	0.00	30.049 
04:50	65.3	65.3	65.3	63	52.4	0	1	112	0.00	30.049 
04:55	65.3	65.3	65.3	63	52.4	0	1	112	0.00	30.049 
05:00	65.2	65.2	65.2	63	52.3	0	3	112	0.00	30.051 
05:05	65.2	65.2	65.2	63	52.3	0	2	112	0.00	30.051 
05:10	65.2	65.2	65.2	63	52.3	0	2	112	0.00	30.051 
05:15	65.2	65.2	65.2	64	52.7	0	2	112	0.00	30.053 
05:20	65.2	65.2	65.2	64	52.7	0	0	---	0.00	30.053 
05:25	65.0	65.0	65.0	64	52.5	0	1	112	0.00	30.053 
05:30	65.0	65.0	65.0	64	52.5	0	0	---	0.00	30.056 
05:35	64.8	64.8	64.8	64	52.3	0	0	---	0.00	30.056 
05:40	64.8	64.8	64.8	64	52.3	0	1	112	0.00	30.056 
05:45	64.8	64.8	64.8	64	52.3	1	3	112	0.00	30.056 
05:50	64.8	64.8	64.8	63	51.9	1	3	112	0.00	30.056 
05:55	65.0	65.0	65.0	63	52.1	1	2	90	0.00	30.056 
06:00	65.0	65.0	65.0	63	52.1	1	6	68	0.00	30.061 
06:05	65.0	65.0	65.0	62	51.7	1	3	68	0.00	30.061 
06:10	65.0	65.0	65.0	62	51.7	1	2	68	0.00	30.061 
06:15	65.0	65.0	65.0	62	51.7	1	3	68	0.00	30.064 
06:20	64.8	64.8	64.8	62	51.5	1	2	68	0.00	30.064 
06:25	64.8	64.8	64.8	63	51.9	0	2	68	0.00	30.064 
06:30	64.7	64.7	64.7	62	51.4	1	3	68	0.00	30.069 
06:35	64.7	64.7	64.7	62	51.4	1	3	68	0.00	30.069 
06:40	64.7	64.7	64.7	63	51.8	1	3	68	0.00	30.069 
06:45	64.7	64.7	64.7	64	52.2	0	1	68	0.00	30.073 
06:50	64.5	64.5	64.5	65	52.5	0	1	68	0.00	30.073 
06:55	64.5	64.5	64.5	64	52.0	0	2	68	0.00	30.073 
07:00	64.5	64.5	64.5	64	52.0	0	1	68	0.00	30.080 
07:05	64.5	64.5	64.5	63	51.6	1	5	68	0.00	30.080 
07:10	64.5	64.5	64.5	64	52.0	1	3	112	0.00	30.080 
07:15	64.5	64.5	64.5	63	51.6	1	4	90	0.00	30.071 
07:20	64.5	64.5	64.5	64	52.0	0	2	90	0.00	30.071 
07:25	64.5	64.5	64.5	65	52.5	0	2	90	0.00	30.071 
07:30	64.5	64.5	64.5	65	52.5	1	3	90	0.00	30.084 
07:35	64.5	64.5	64.5	65	52.5	1	5	90	0.00	30.084 
07:40	64.5	64.5	64.5	65	52.5	2	4	112	0.00	30.084 
07:45	64.5	64.5	64.5	65	52.5	1	2	112	0.00	30.093 
07:50	64.5	64.5	64.5	65	52.5	1	3	112	0.00	30.093 
07:55	64.5	64.5	64.5	65	52.5	1	2	90	0.00	30.093 
08:00	64.5	64.5	64.5	65	52.5	1	2	90	0.00	30.096 
08:05	64.5	64.5	64.5	65	52.5	1	4	90	0.00	30.096 
08:10	64.5	64.5	64.5	65	52.5	1	3	90	0.00	30.096 
08:15	64.5	64.5	64.5	66	52.9	1	4	90	0.00	30.096 
08:20	64.5	64.5	64.5	66	52.9	1	2	90	0.00	30.096 
08:25	64.5	64.5	64.5	65	52.5	1	4	90	0.00	30.096 
08:30	64.5	64.5	64.5	66	52.9	0	1	90	0.00	30.096 
08:35	64.7	64.7	64.7	67	53.5	0	3	90	0.00	30.096 
08:40	65.3	65.3	65.3	65	53.2	1	2	90	0.00	30.096 
08:45	66.0	66.0	66.0	63	53.0	1	3	90	0.00	30.105 
08:50	66.1	66.1	66.1	63	53.1	1	6	112	0.00	30.105 
08:55	66.0	66.0	66.0	63	53.0	1	5	90	0.00	30.105 
09:00	65.8	65.8	65.8	63	52.8	2	5	112	0.00	30.101 
09:05	65.8	65.8	65.8	64	53.3	2	5	112	0.00	30.101 
09:10	66.1	66.1	66.1	64	53.6	1	4	90	0.00	30.101 
09:15	66.3	66.3	66.3	63	53.3	2	5	90	0.00	30.103 
09:20	66.4	66.4	66.4	63	53.4	2	4	68	0.00	30.103 
09:25	66.6	66.6	66.6	62	53.2	2	5	90	0.00	30.103 
09:30	66.9	66.9	66.9	63	53.9	3	9	90	0.00	30.098 
09:35	67.4	67.4	67.4	62	53.9	2	6	90	0.00	30.098 
09:40	67.9	67.9	67.9	61	53.9	1	4	90	0.00	30.098 
09:45	68.3	68.3	68.3	60	53.9	2	5	90	0.00	30.111 
09:50	68.6	68.6	68.6	59	53.7	3	6	90	0.00	30.111 
09:55	68.8	68.8	68.8	59	53.9	2	5	90	0.00	30.111 
10:00	68.9	68.9	68.9	56	52.5	3	6	90	0.00	30.112 
10:05	69.3	69.3	69.3	57	53.4	3	6	90	0.00	30.112 
10:10	69.4	69.4	69.4	55	52.5	3	5	90	0.00	30.112 
10:15	69.9	69.9	69.9	56	53.5	3	9	90	0.00	30.114 
10:20	70.6	70.6	70.6	54	53.1	3	9	112	0.00	30.114 
10:25	71.1	71.1	71.1	54	53.6	3	7	90	0.00	30.114 
10:30	71.6	71.6	71.6	51	52.5	3	6	90	0.00	30.105 
10:35	72.5	72.5	72.5	51	53.3	2	5	90	0.00	30.105 
10:40	73.5	73.5	73.5	46	51.4	4	8	90	0.00	30.105 
10:45	73.9	73.9	73.9	48	53.0	2	5	90	0.00	30.102 
10:50	74.2	74.2	74.2	47	52.7	4	10	90	0.00	30.102 
10:55	74.0	74.0	74.0	49	53.6	2	5	90	0.00	30.102 
11:00	73.7	73.7	73.7	48	52.8	4	11	90	0.00	30.109 
11:05	73.5	73.5	73.5	50	53.7	3	7	90	0.00	30.109 
11:10	73.7	73.7	73.7	49	53.3	4	9	90	0.00	30.109 
11:15	74.4	74.4	74.4	50	54.5	2	5	90	0.00	30.114 
11:20	75.3	75.3	77.7	46	53.1	3	9	90	0.00	30.114 
11:25	75.4	75.4	77.8	47	53.7	3	6	90	0.00	30.114 
11:30	75.4	75.4	77.8	48	54.3	3	9	90	0.00	30.114 
11:35	75.3	75.3	77.7	47	53.7	3	6	90	0.00	30.114 
11:40	75.6	75.6	77.9	50	55.6	3	6	90	0.00	30.114 
11:45	76.0	76.0	78.0	46	53.7	2	6	90	0.00	30.116 
11:50	76.1	76.1	78.1	48	55.0	2	6	90	0.00	30.116 
11:55	76.3	76.3	78.2	49	55.7	2	5	90	0.00	30.116 
12:00	77.0	77.0	78.5	46	54.6	2	7	90	0.00	30.119 
12:05	77.7	77.7	78.9	46	55.2	1	3	135	0.00	30.119 
12:10	78.1	78.1	79.1	46	55.6	2	6	90	0.00	30.119 
12:15	78.1	78.1	79.0	45	55.0	3	6	112	0.00	30.122 
12:20	77.9	77.9	79.1	48	56.6	2	7	90	0.00	30.122 
12:25	77.7	77.7	78.9	46	55.2	2	5	112	0.00	30.122 
12:30	77.9	77.9	79.0	46	55.4	2	7	90	0.00	30.115 
12:35	78.1	78.1	79.0	44	54.4	3	6	90	0.00	30.115 
12:40	78.3	78.3	79.3	47	56.4	2	5	90	0.00	30.115 
12:45	78.5	78.5	79.4	46	56.0	2	6	90	0.00	30.119 
12:50	78.8	78.8	79.6	46	56.2	1	4	90	0.00	30.119 
12:55	79.2	79.2	79.8	45	56.0	1	3	90	0.00	30.119 
13:00	79.4	79.4	79.9	45	56.2	3	6	90	0.00	30.119 
13:05	79.0	79.0	79.6	45	55.8	3	6	90	0.00	30.119 
13:10	79.2	79.2	80.0	48	57.8	1	4	90	0.00	30.119 
13:15	79.8	79.8	80.0	42	54.6	1	3	90	0.00	30.111 
13:20	80.1	80.1	80.2	42	54.9	2	5	90	0.00	30.111 
13:25	80.1	80.1	80.0	40	53.6	2	5	90	0.00	30.111 
13:30	79.8	79.8	80.0	43	55.3	2	6	68	0.00	30.111 
13:35	79.8	79.8	79.9	41	54.0	1	4	68	0.00	30.111 
13:40	80.1	80.1	80.3	43	55.6	1	4	90	0.00	30.111 
13:45	80.1	80.1	80.3	44	56.2	3	6	112	0.00	30.117 
13:50	80.3	80.3	80.2	41	54.4	2	6	112	0.00	30.117 
13:55	80.3	80.3	80.3	42	55.1	2	5	112	0.00	30.117 
14:00	80.9	80.9	80.5	39	53.6	2	4	90	0.00	30.115 
14:05	81.1	81.1	80.6	39	53.8	1	4	90	0.00	30.115 
14:10	81.4	81.4	81.0	40	54.7	1	3	90	0.00	30.115 
14:15	81.8	81.8	81.4	41	55.8	1	6	90	0.00	30.109 
14:20	81.8	81.8	81.6	43	57.1	1	3	112	0.00	30.109 
14:25	81.6	81.6	81.2	41	55.6	1	5	90	0.00	30.109 
14:30	81.4	81.4	81.1	41	55.4	1	3	90	0.00	30.108 
14:35	81.4	81.4	81.0	40	54.7	1	4	90	0.00	30.108 
14:40	81.6	81.6	81.5	43	56.9	2	5	90	0.00	30.108 
14:45	82.2	82.2	81.9	42	56.8	2	4	90	0.00	30.105 
14:50	81.8	81.8	81.3	40	55.1	1	5	135	0.00	30.105 
14:55	81.2	81.2	80.9	41	55.2	1	4	135	0.00	30.105 
15:00	80.5	80.5	80.4	41	54.6	2	4	68	0.00	30.104 
15:05	79.9	79.9	80.0	42	54.7	1	4	90	0.00	30.104 
15:10	80.1	80.1	80.2	42	54.9	0	1	112	0.00	30.104 
15:15	80.5	80.5	80.6	43	55.9	2	4	112	0.00	30.100 
15:20	81.1	81.1	81.0	43	56.5	2	5	112	0.00	30.100 
15:25	81.4	81.4	81.0	40	54.7	2	5	90	0.00	30.100 
15:30	81.1	81.1	80.7	40	54.5	2	4	90	0.00	30.100 
15:35	80.9	80.9	80.6	40	54.3	2	4	90	0.00	30.100 
15:40	80.5	80.5	80.4	41	54.6	2	5	68	0.00	30.100 
15:45	80.1	80.1	80.1	41	54.2	2	4	90	0.00	30.095 
15:50	80.1	80.1	80.2	42	54.9	1	3	90	0.00	30.095 
15:55	80.1	80.1	80.3	43	55.6	0	3	90	0.00	30.095 
16:00	80.3	80.3	80.2	41	54.4	1	4	90	0.00	30.095 
16:05	80.5	80.5	80.4	41	54.6	1	6	45	0.00	30.095 
16:10	80.3	80.3	80.3	42	55.1	1	4	90	0.00	30.095 
16:15	79.9	79.9	80.0	42	54.7	2	5	90	0.00	30.096 
16:20	79.8	79.8	80.0	43	55.3	2	3	90	0.00	30.096 
16:25	79.9	79.9	80.0	42	54.7	1	3	90	0.00	30.096 
16:30	80.1	80.1	80.2	42	54.9	1	4	90	0.00	30.095 
16:35	80.3	80.3	80.2	41	54.4	1	4	112	0.00	30.095 
16:40	80.5	80.5	80.5	42	55.3	1	4	112	0.00	30.095 
16:45	80.7	80.7	80.6	42	55.4	2	5	90	0.00	30.093 
16:50	80.5	80.5	80.5	42	55.3	2	5	112	0.00	30.093 
16:55	80.3	80.3	80.3	42	55.1	1	6	90	0.00	30.093 
17:00	80.1	80.1	80.2	42	54.9	1	4	90	0.00	30.094 
17:05	80.5	80.5	80.5	42	55.3	2	4	68	0.00	30.094 
17:10	80.9	80.9	80.7	41	55.0	2	5	90	0.00	30.094 
17:15	81.1	81.1	80.7	40	54.5	1	4	90	0.00	30.092 
17:20	81.2	81.2	80.8	40	54.6	2	5	90	0.00	30.092 
17:25	81.4	81.4	81.1	41	55.4	2	6	90	0.00	30.092 
17:30	81.6	81.6	81.1	40	54.9	2	6	90	0.00	30.092 
17:35	81.6	81.6	81.0	39	54.2	2	7	90	0.00	30.092 
17:40	81.4	81.4	81.1	41	55.4	2	6	90	0.00	30.092 
17:45	81.4	81.4	80.9	39	54.0	1	3	90	0.00	30.090 
17:50	80.9	80.9	80.7	41	55.0	3	5	90	0.00	30.090 
17:55	80.3	80.3	80.2	41	54.4	2	5	68	0.00	30.090 
18:00	80.1	80.1	80.3	43	55.6	1	4	90	0.00	30.094 
18:05	80.3	80.3	80.3	42	55.1	1	3	90	0.00	30.094 
18:10	80.3	80.3	80.3	42	55.1	2	5	90	0.00	30.094 
18:15	80.5	80.5	80.4	41	54.6	1	3	68	0.00	30.086 
18:20	80.5	80.5	80.4	41	54.6	1	4	90	0.00	30.086 
18:25	80.7	80.7	80.5	41	54.8	1	2	90	0.00	30.086 
18:30	80.9	80.9	80.7	41	55.0	1	3	45	0.00	30.078 
18:35	80.7	80.7	80.6	42	55.4	2	4	90	0.00	30.078 
18:40	80.5	80.5	80.5	42	55.3	1	3	90	0.00	30.078 
18:45	80.3	80.3	80.2	41	54.4	1	5	158	0.00	30.079 
18:50	80.3	80.3	80.3	42	55.1	1	3	135	0.00	30.079 
18:55	80.3	80.3	80.4	43	55.7	2	5	90	0.00	30.079 
19:00	80.1	80.1	80.3	43	55.6	1	2	90	0.00	30.078 
19:05	79.9	79.9	80.1	43	55.4	1	3	90	0.00	30.078 
19:10	79.6	79.6	79.9	43	55.1	1	3	90	0.00	30.078 
19:15	79.6	79.6	79.9	43	55.1	1	3	90	0.00	30.079 
19:20	79.6	79.6	79.9	43	55.1	0	2	68	0.00	30.079 
19:25	79.4	79.4	79.8	43	54.9	1	5	112	0.00	30.079 
19:30	79.2	79.2	79.6	43	54.7	1	4	112	0.00	30.080 
19:35	78.8	78.8	79.4	44	55.0	1	3	112	0.00	30.080 
19:40	78.6	78.6	79.4	45	55.5	1	2	112	0.00	30.080 
19:45	78.5	78.5	79.4	46	56.0	0	3	112	0.00	30.079 
19:50	78.3	78.3	79.2	46	55.8	1	4	112	0.00	30.079 
19:55	78.3	78.3	79.2	46	55.8	1	3	112	0.00	30.079 
20:00	78.1	78.1	79.1	46	55.6	1	2	112	0.00	30.080 
20:05	78.1	78.1	79.1	46	55.6	0	3	112	0.00	30.080 
20:10	77.9	77.9	79.0	46	55.4	0	2	112	0.00	30.080 
20:15	77.7	77.7	78.9	46	55.2	0	2	112	0.00	30.078 
20:20	77.7	77.7	78.9	46	55.2	0	2	112	0.00	30.078 
20:25	77.6	77.6	78.8	46	55.2	0	1	112	0.00	30.078 
20:30	77.4	77.4	78.7	47	55.6	0	1	112	0.00	30.079 
20:35	77.2	77.2	78.6	47	55.4	0	1	112	0.00	30.079 
20:40	77.0	77.0	78.5	48	55.8	0	1	112	0.00	30.079 
20:45	76.8	76.8	78.5	49	56.2	0	1	112	0.00	30.081 
20:50	76.5	76.5	78.3	49	55.9	0	0	---	0.00	30.081 
20:55	76.3	76.3	78.2	50	56.3	0	0	---	0.00	30.081 
21:00	76.0	76.0	78.1	50	56.0	0	0	---	0.00	30.085 
21:05	75.6	75.6	77.9	51	56.2	0	0	---	0.00	30.085 
21:10	75.4	75.4	77.8	52	56.5	0	0	---	0.00	30.085 
21:15	75.1	75.1	77.6	52	56.3	0	0	---	0.00	30.085 
21:20	74.6	74.6	74.6	53	56.3	0	0	---	0.00	30.085 
21:25	74.2	74.2	74.2	54	56.5	0	0	---	0.00	30.085 
21:30	73.7	73.7	73.7	55	56.5	0	0	---	0.00	30.095 
21:35	73.2	73.2	73.2	56	56.5	0	0	---	0.00	30.095 
21:40	72.8	72.8	72.8	57	56.7	0	0	---	0.00	30.095 
21:45	72.3	72.3	72.3	58	56.7	0	0	---	0.00	30.102 
21:50	72.0	72.0	72.0	59	56.9	0	0	---	0.00	30.102 
21:55	71.6	71.6	71.6	59	56.5	0	0	---	0.00	30.102 
22:00	71.1	71.1	71.1	60	56.5	0	0	---	0.00	30.110 
22:05	70.8	70.8	70.8	61	56.7	0	0	---	0.00	30.110 
22:10	70.4	70.4	70.4	61	56.3	0	0	---	0.00	30.110 
22:15	70.3	70.3	70.3	62	56.7	0	0	---	0.00	30.110 
22:20	69.9	69.9	69.9	64	57.2	0	0	---	0.00	30.110 
22:25	69.6	69.6	69.6	64	56.9	0	0	---	0.00	30.110 
22:30	69.3	69.3	69.3	65	57.0	0	0	---	0.00	30.123 
22:35	69.1	69.1	69.1	65	56.8	0	0	---	0.00	30.123 
22:40	68.8	68.8	68.8	65	56.5	0	0	---	0.00	30.123 
22:45	68.6	68.6	68.6	66	56.8	0	0	---	0.00	30.126 
22:50	68.4	68.4	68.4	67	57.0	0	0	---	0.00	30.126 
22:55	68.3	68.3	68.3	67	56.9	0	0	---	0.00	30.126 
23:00	68.1	68.1	68.1	69	57.5	0	0	---	0.00	30.132 
23:05	67.8	67.8	67.8	70	57.6	0	0	---	0.00	30.132 
23:10	67.6	67.6	67.6	71	57.9	0	0	---	0.00	30.132 
23:15	67.4	67.4	67.4	72	58.1	0	0	---	0.00	30.130 
23:20	67.3	67.3	67.3	73	58.3	0	0	---	0.00	30.130 
23:25	67.1	67.1	67.1	74	58.5	0	1	112	0.00	30.130 
23:30	67.1	67.1	67.1	74	58.5	0	2	112	0.00	30.128 
23:35	67.8	67.8	67.8	68	56.8	2	5	112	0.00	30.128 
23:40	68.6	68.6	68.6	66	56.8	1	5	112	0.00	30.128 
23:45	69.1	69.1	69.1	65	56.8	1	4	90	0.00	30.125 
23:50	69.1	69.1	69.1	66	57.3	1	3	90	0.00	30.125 
23:55	69.1	69.1	69.1	66	57.3	1	5	90	0.00	30.125 

CoCoRaHS
IN-AL-39
A2 Web Hosting
Creative Commons License
GoDaddy
search engine by freefind advanced

loaded 2018-11-13 21:18:04 • last modified 2010-11-18 10:43:29
Privacy PolicyDisclaimer
• wx.awcolley.com is powered by PmWiki v.2002016 •
• all content (unless otherwise noted) © 2018 A W Colley